createdAt,value
2023-02-15T00:00:39.446Z,484.1
2023-02-15T00:01:42.281Z,484.3
2023-02-15T00:02:44.428Z,484.6
2023-02-15T00:03:46.651Z,484.3
2023-02-15T00:04:49.130Z,484.2
2023-02-15T00:05:51.727Z,484.1
2023-02-15T00:06:53.953Z,484.3
2023-02-15T00:07:56.458Z,484.4
2023-02-15T00:08:58.722Z,484.4
2023-02-15T00:10:01.270Z,484.4
2023-02-15T00:11:03.215Z,484.8
2023-02-15T00:12:05.708Z,484.8
2023-02-15T00:13:07.915Z,484.6
2023-02-15T00:14:10.460Z,485.1
2023-02-15T00:15:12.997Z,485.3
2023-02-15T00:16:15.932Z,485.3
2023-02-15T00:17:18.436Z,485.3
2023-02-15T00:18:20.689Z,485.5
2023-02-15T00:19:23.211Z,485.3
2023-02-15T00:20:25.757Z,485.2
2023-02-15T00:21:28.240Z,485.4
2023-02-15T00:22:30.247Z,485.4
2023-02-15T00:23:32.733Z,485.4
2023-02-15T00:24:35.223Z,485.5
2023-02-15T00:25:37.728Z,485.4
2023-02-15T00:26:40.277Z,485.2
2023-02-15T00:27:42.807Z,485.7
2023-02-15T00:28:45.296Z,485.1
2023-02-15T00:29:47.805Z,484.9
2023-02-15T00:30:50.854Z,485.3
2023-02-15T00:31:53.859Z,485.3
2023-02-15T00:32:56.368Z,485
2023-02-15T00:33:58.580Z,485.3
2023-02-15T00:35:01.090Z,485.4
2023-02-15T00:36:04.679Z,485.2
2023-02-15T00:37:07.182Z,485.3
2023-02-15T00:38:09.424Z,485.2
2023-02-15T00:39:11.948Z,485.2
2023-02-15T00:40:14.483Z,485.4
2023-02-15T00:41:16.986Z,485.7
2023-02-15T00:42:19.615Z,485.7
2023-02-15T00:43:21.559Z,485.9
2023-02-15T00:44:24.066Z,485.9
2023-02-15T00:45:26.309Z,486
2023-02-15T00:46:28.840Z,485.6
2023-02-15T00:47:31.496Z,486.2
2023-02-15T00:48:34.012Z,486.3
2023-02-15T00:49:36.533Z,486.3
2023-02-15T00:50:39.024Z,486.7
2023-02-15T00:51:41.603Z,486.5
2023-02-15T00:52:43.831Z,487
2023-02-15T00:53:46.337Z,486.6
2023-02-15T00:54:48.270Z,487.5
2023-02-15T00:55:50.488Z,487.1
2023-02-15T00:56:53.008Z,487.3
2023-02-15T00:57:55.265Z,487.1
2023-02-15T00:58:57.552Z,487.4
2023-02-15T00:59:59.490Z,488.5
2023-02-15T01:01:02.207Z,488.4
2023-02-15T01:02:04.444Z,488.1
2023-02-15T01:03:07.092Z,488.4
2023-02-15T01:04:09.953Z,488.2
2023-02-15T01:05:12.467Z,488.6
2023-02-15T01:06:14.971Z,488.6
2023-02-15T01:07:17.472Z,488.3
2023-02-15T01:08:19.975Z,488.7
2023-02-15T01:09:22.473Z,488.6
2023-02-15T01:10:24.700Z,488.5
2023-02-15T01:11:27.273Z,488.8
2023-02-15T01:12:29.796Z,488.9
2023-02-15T01:13:32.290Z,488.9
2023-02-15T01:14:34.790Z,489.1
2023-02-15T01:15:37.644Z,489.3
2023-02-15T01:16:40.193Z,489.1
2023-02-15T01:17:42.705Z,489
2023-02-15T01:18:45.334Z,489.6
2023-02-15T01:19:47.844Z,489.1
2023-02-15T01:20:50.471Z,489.2
2023-02-15T01:21:53.003Z,489.4
2023-02-15T01:22:55.513Z,489.5
2023-02-15T01:23:58.015Z,489.4
2023-02-15T01:25:00.511Z,489.9
2023-02-15T01:26:04.543Z,489.8
2023-02-15T01:27:07.063Z,489.7
2023-02-15T01:28:09.579Z,489.9
2023-02-15T01:29:12.090Z,490.1
2023-02-15T01:30:15.021Z,490.2
2023-02-15T01:31:18.343Z,490.3
2023-02-15T01:32:20.417Z,490.4
2023-02-15T01:33:22.328Z,490.5
2023-02-15T01:34:24.959Z,490.1
2023-02-15T01:35:27.204Z,490.8
2023-02-15T01:36:29.440Z,490.7
2023-02-15T01:37:31.654Z,490.7
2023-02-15T01:38:34.165Z,490.6
2023-02-15T01:39:36.679Z,490.3
2023-02-15T01:40:39.156Z,490.5
2023-02-15T01:41:41.654Z,490.9
2023-02-15T01:42:44.138Z,490.4
2023-02-15T01:43:46.692Z,490.5
2023-02-15T01:44:49.188Z,490.8
2023-02-15T01:45:51.887Z,490.5
2023-02-15T01:46:54.394Z,491
2023-02-15T01:47:56.881Z,490.7
2023-02-15T01:48:59.109Z,490.9
2023-02-15T01:50:01.813Z,491.1
2023-02-15T01:51:05.833Z,491.2
2023-02-15T01:52:08.335Z,491.3
2023-02-15T01:53:10.823Z,491.2
2023-02-15T01:54:12.876Z,491.6
2023-02-15T01:55:15.435Z,491.7
2023-02-15T01:56:17.969Z,491.7
2023-02-15T01:57:20.559Z,491.5
2023-02-15T01:58:23.044Z,491.7
2023-02-15T01:59:25.008Z,491.6
2023-02-15T02:00:26.949Z,491.4
2023-02-15T02:01:29.721Z,491.3
2023-02-15T02:02:32.608Z,491.2
2023-02-15T02:03:35.174Z,491.2
2023-02-15T02:04:37.677Z,491
2023-02-15T02:05:40.275Z,490.9
2023-02-15T02:06:42.799Z,490.9
2023-02-15T02:07:45.298Z,491
2023-02-15T02:08:47.807Z,491.5
2023-02-15T02:09:50.364Z,491.3
2023-02-15T02:10:52.904Z,492
2023-02-15T02:11:55.449Z,491.9
2023-02-15T02:12:57.962Z,492.1
2023-02-15T02:14:00.193Z,492.4
2023-02-15T02:15:02.696Z,492.4
2023-02-15T02:16:06.204Z,492.5
2023-02-15T02:17:08.730Z,492.4
2023-02-15T02:18:10.972Z,492.4
2023-02-15T02:19:13.214Z,492.7
2023-02-15T02:20:15.732Z,492.4
2023-02-15T02:21:18.050Z,492.3
2023-02-15T02:22:20.549Z,492.3
2023-02-15T02:23:22.506Z,492.2
2023-02-15T02:24:25.009Z,492.4
2023-02-15T02:25:27.503Z,492.4
2023-02-15T02:26:29.728Z,492.3
2023-02-15T02:27:32.231Z,492
2023-02-15T02:28:34.425Z,492.2
2023-02-15T02:29:36.668Z,492.4
2023-02-15T02:30:39.778Z,492.2
2023-02-15T02:31:43.254Z,492.2
2023-02-15T02:32:45.539Z,492.4
2023-02-15T02:33:47.789Z,492.1
2023-02-15T02:34:50.297Z,492.3
2023-02-15T02:35:52.491Z,492.3
2023-02-15T02:36:55.098Z,492.3
2023-02-15T02:37:57.598Z,492.4
2023-02-15T02:38:59.810Z,492.6
2023-02-15T02:40:02.056Z,492.9
2023-02-15T02:41:04.558Z,492.8
2023-02-15T02:42:07.042Z,492.7
2023-02-15T02:43:09.569Z,493
2023-02-15T02:44:12.074Z,493
2023-02-15T02:45:14.579Z,493.2
2023-02-15T02:46:17.165Z,493.2
2023-02-15T02:47:19.679Z,493
2023-02-15T02:48:22.162Z,493.5
2023-02-15T02:49:24.657Z,493.4
2023-02-15T02:50:27.471Z,493.5
2023-02-15T02:51:29.708Z,493.2
2023-02-15T02:52:32.318Z,493.2
2023-02-15T02:53:34.887Z,493
2023-02-15T02:54:37.468Z,492.9
2023-02-15T02:55:39.701Z,492.8
2023-02-15T02:56:41.646Z,492.5
2023-02-15T02:57:43.865Z,492.9
2023-02-15T02:58:46.369Z,492.9
2023-02-15T02:59:48.024Z,492.9
2023-02-15T03:00:50.257Z,493.1
2023-02-15T03:01:52.991Z,492.8
2023-02-15T03:02:55.675Z,492.9
2023-02-15T03:03:58.230Z,493
2023-02-15T03:05:00.818Z,492.9
2023-02-15T03:06:04.820Z,492.7
2023-02-15T03:07:07.045Z,492.6
2023-02-15T03:08:09.781Z,492.8
2023-02-15T03:09:12.284Z,492.4
2023-02-15T03:10:14.789Z,492.6
2023-02-15T03:11:17.316Z,492.9
2023-02-15T03:12:19.558Z,492.6
2023-02-15T03:13:21.495Z,492.8
2023-02-15T03:14:23.733Z,493.2
2023-02-15T03:15:26.000Z,493.3
2023-02-15T03:16:29.225Z,493.3
2023-02-15T03:17:31.816Z,493.5
2023-02-15T03:18:34.056Z,493.2
2023-02-15T03:19:36.610Z,493.8
2023-02-15T03:20:39.138Z,493.6
2023-02-15T03:21:41.639Z,493.8
2023-02-15T03:22:44.146Z,493.8
2023-02-15T03:23:46.569Z,493.8
2023-02-15T03:24:48.811Z,493.8
2023-02-15T03:25:51.296Z,493.9
2023-02-15T03:26:53.510Z,493.9
2023-02-15T03:27:56.025Z,494.1
2023-02-15T03:28:58.513Z,494.1
2023-02-15T03:30:01.396Z,493.8
2023-02-15T03:31:04.453Z,493.9
2023-02-15T03:32:07.427Z,493.6
2023-02-15T03:33:09.990Z,493.8
2023-02-15T03:34:12.489Z,493.7
2023-02-15T03:35:15.013Z,493.6
2023-02-15T03:36:17.240Z,494
2023-02-15T03:37:19.454Z,494
2023-02-15T03:38:21.973Z,493.8
2023-02-15T03:39:24.638Z,493.7
2023-02-15T03:40:27.174Z,493.5
2023-02-15T03:41:29.472Z,493.5
2023-02-15T03:42:31.980Z,493.4
2023-02-15T03:43:33.937Z,493.5
2023-02-15T03:44:36.427Z,493.7
2023-02-15T03:45:38.382Z,493.4
2023-02-15T03:46:41.229Z,493.2
2023-02-15T03:47:43.750Z,493.3
2023-02-15T03:48:45.974Z,493.3
2023-02-15T03:49:48.236Z,493
2023-02-15T03:50:50.821Z,493.5
2023-02-15T03:51:53.089Z,493.2
2023-02-15T03:52:55.044Z,493.2
2023-02-15T03:53:57.264Z,493.5
2023-02-15T03:55:00.010Z,493.5
2023-02-15T03:56:04.058Z,493.7
2023-02-15T03:57:06.400Z,493.6
2023-02-15T03:58:08.344Z,493.7
2023-02-15T03:59:10.936Z,493.3
2023-02-15T04:00:13.543Z,493.6
2023-02-15T04:01:16.588Z,493.4
2023-02-15T04:02:19.158Z,493.3
2023-02-15T04:03:22.262Z,493.3
2023-02-15T04:05:29.776Z,492.8
2023-02-15T04:06:32.303Z,493.2
2023-02-15T04:07:34.537Z,493.3
2023-02-15T04:08:37.037Z,493.1
2023-02-15T04:09:39.557Z,493.4
2023-02-15T04:10:42.169Z,493.7
2023-02-15T04:11:44.400Z,493.6
2023-02-15T04:12:46.902Z,493.5
2023-02-15T04:13:49.407Z,493.5
2023-02-15T04:14:51.909Z,493.4
2023-02-15T04:15:54.404Z,493.4
2023-02-15T04:16:56.695Z,493
2023-02-15T04:17:59.194Z,493
2023-02-15T04:19:01.428Z,493.1
2023-02-15T04:20:04.057Z,492.8
2023-02-15T04:21:06.562Z,492.9
2023-02-15T04:22:09.201Z,492.8
2023-02-15T04:23:11.707Z,493.1
2023-02-15T04:24:13.661Z,493.2
2023-02-15T04:25:15.617Z,492.8
2023-02-15T04:26:18.241Z,492.9
2023-02-15T04:27:20.302Z,492.9
2023-02-15T04:28:22.538Z,493.1
2023-02-15T04:29:25.040Z,492.9
2023-02-15T04:30:28.079Z,492.9
2023-02-15T04:31:31.282Z,492.6
2023-02-15T04:32:33.866Z,492.6
2023-02-15T04:33:36.356Z,493.3
2023-02-15T04:34:38.845Z,493.1
2023-02-15T04:35:41.346Z,493.1
2023-02-15T04:36:43.852Z,493.2
2023-02-15T04:37:46.160Z,493
2023-02-15T04:38:48.388Z,493.4
2023-02-15T04:39:50.913Z,493.4
2023-02-15T04:40:52.854Z,493.1
2023-02-15T04:41:55.493Z,493.3
2023-02-15T04:42:58.023Z,493.5
2023-02-15T04:44:00.545Z,493.3
2023-02-15T04:45:02.818Z,493.1
2023-02-15T04:46:06.661Z,493.1
2023-02-15T04:47:09.223Z,493.3
2023-02-15T04:48:11.754Z,493.2
2023-02-15T04:49:13.998Z,493.4
2023-02-15T04:50:16.546Z,493.4
2023-02-15T04:51:18.785Z,493.5
2023-02-15T04:52:20.998Z,493.8
2023-02-15T04:53:23.505Z,493.7
2023-02-15T04:54:26.035Z,493.6
2023-02-15T04:55:28.535Z,493.3
2023-02-15T04:56:31.195Z,493.2
2023-02-15T04:57:33.850Z,493.1
2023-02-15T04:58:36.353Z,493.5
2023-02-15T04:59:38.881Z,492.8
2023-02-15T05:00:40.831Z,492.5
2023-02-15T05:01:43.093Z,492.9
2023-02-15T05:02:45.333Z,493.1
2023-02-15T05:03:47.575Z,493.4
2023-02-15T05:04:49.825Z,492.9
2023-02-15T05:05:52.063Z,493.2
2023-02-15T05:06:53.996Z,493.4
2023-02-15T05:07:56.520Z,493.5
2023-02-15T05:08:59.024Z,493.4
2023-02-15T05:10:01.629Z,493.3
2023-02-15T05:11:04.195Z,493.2
2023-02-15T05:12:06.677Z,493.2
2023-02-15T05:13:09.385Z,493.4
2023-02-15T05:14:11.615Z,493.1
2023-02-15T05:15:13.851Z,493.1
2023-02-15T05:16:16.617Z,493.1
2023-02-15T05:17:19.128Z,493.3
2023-02-15T05:18:21.634Z,493.1
2023-02-15T05:19:24.160Z,493.1
2023-02-15T05:20:26.382Z,493.2
2023-02-15T05:21:28.902Z,493.5
2023-02-15T05:22:31.410Z,493.6
2023-02-15T05:23:33.923Z,493.3
2023-02-15T05:24:36.172Z,493.3
2023-02-15T05:25:38.110Z,493.4
2023-02-15T05:26:40.398Z,493
2023-02-15T05:27:42.643Z,493.1
2023-02-15T05:28:45.256Z,493
2023-02-15T05:29:47.224Z,492.8
2023-02-15T05:30:50.706Z,493
2023-02-15T05:31:53.634Z,493.2
2023-02-15T05:32:56.749Z,493.1
2023-02-15T05:33:59.005Z,493.3
2023-02-15T05:35:01.592Z,493.7
2023-02-15T05:36:06.536Z,493.7
2023-02-15T05:37:09.179Z,493.2
2023-02-15T05:38:11.662Z,493.4
2023-02-15T05:39:14.173Z,493.3
2023-02-15T05:40:16.397Z,493.2
2023-02-15T05:41:18.638Z,493
2023-02-15T05:42:21.127Z,492.6
2023-02-15T05:43:23.628Z,493
2023-02-15T05:44:26.245Z,493
2023-02-15T05:45:28.781Z,492.7
2023-02-15T05:46:31.828Z,492.6
2023-02-15T05:47:34.053Z,492.8
2023-02-15T05:48:36.473Z,492.6
2023-02-15T05:49:39.028Z,492.9
2023-02-15T05:50:41.552Z,492.6
2023-02-15T05:51:43.759Z,492.6
2023-02-15T05:52:45.998Z,492.4
2023-02-15T05:53:48.211Z,492.4
2023-02-15T05:54:50.476Z,492.3
2023-02-15T05:55:52.711Z,491.9
2023-02-15T05:56:54.958Z,491.9
2023-02-15T05:57:57.525Z,491.8
2023-02-15T05:59:00.036Z,492
2023-02-15T06:00:02.784Z,491.8
2023-02-15T06:01:05.291Z,491.8
2023-02-15T06:02:07.823Z,491.9
2023-02-15T06:03:10.712Z,491.9
2023-02-15T06:04:13.221Z,491.8
2023-02-15T06:05:15.471Z,491.6
2023-02-15T06:06:17.752Z,491.6
2023-02-15T06:07:20.287Z,491.6
2023-02-15T06:08:22.824Z,491.6
2023-02-15T06:09:25.394Z,491.2
2023-02-15T06:10:27.906Z,491.7
2023-02-15T06:11:30.130Z,491.7
2023-02-15T06:12:32.652Z,492.1
2023-02-15T06:14:40.852Z,492.2
2023-02-15T06:15:43.762Z,492
2023-02-15T06:16:46.340Z,492
2023-02-15T06:17:48.582Z,492.1
2023-02-15T06:19:57.832Z,491.7
2023-02-15T06:21:00.354Z,492
2023-02-15T06:22:02.874Z,491.6
2023-02-15T06:23:05.375Z,491.6
2023-02-15T06:24:07.875Z,491.7
2023-02-15T06:25:10.371Z,491.9
2023-02-15T06:26:12.310Z,491.8
2023-02-15T06:27:14.532Z,491.7
2023-02-15T06:28:17.053Z,491.9
2023-02-15T06:29:19.286Z,491.5
2023-02-15T06:30:22.226Z,491.7
2023-02-15T06:31:25.706Z,491.1
2023-02-15T06:32:28.237Z,491.4
2023-02-15T06:33:30.477Z,491.4
2023-02-15T06:34:32.960Z,491.1
2023-02-15T06:35:35.508Z,491.4
2023-02-15T06:36:38.026Z,490.9
2023-02-15T06:37:40.561Z,491.2
2023-02-15T06:38:43.054Z,491.2
2023-02-15T06:39:45.542Z,491.2
2023-02-15T06:40:48.064Z,490.8
2023-02-15T06:41:50.560Z,490.5
2023-02-15T06:42:53.063Z,491.1
2023-02-15T06:43:55.571Z,490.7
2023-02-15T06:44:58.227Z,490.8
2023-02-15T06:46:02.523Z,491
2023-02-15T06:47:05.283Z,490.5
2023-02-15T06:48:07.787Z,490.2
2023-02-15T06:49:10.291Z,490.6
2023-02-15T06:50:12.813Z,490.7
2023-02-15T06:51:15.322Z,490.3
2023-02-15T06:52:17.835Z,490.2
2023-02-15T06:53:20.348Z,490.2
2023-02-15T06:54:22.870Z,490.7
2023-02-15T06:55:25.386Z,490.2
2023-02-15T06:56:27.621Z,490.6
2023-02-15T06:57:30.183Z,490.7
2023-02-15T06:58:32.672Z,490.6
2023-02-15T06:59:35.184Z,490.1
2023-02-15T07:00:37.703Z,490.1
2023-02-15T07:01:40.659Z,490.3
2023-02-15T07:02:43.365Z,490.4
2023-02-15T07:03:45.928Z,490.3
2023-02-15T07:04:48.878Z,490.3
2023-02-15T07:05:51.149Z,490.4
2023-02-15T07:07:58.627Z,489.4
2023-02-15T07:09:01.130Z,490
2023-02-15T07:10:03.402Z,490.3
2023-02-15T07:11:05.370Z,490
2023-02-15T07:12:07.309Z,490.5
2023-02-15T07:13:09.843Z,490.6
2023-02-15T07:14:11.517Z,490.2
2023-02-15T07:15:13.786Z,489.5
2023-02-15T07:16:16.662Z,490.1
2023-02-15T07:18:24.288Z,489.6
2023-02-15T07:19:26.555Z,490.3
2023-02-15T07:20:29.059Z,489.6
2023-02-15T07:21:31.584Z,489.6
2023-02-15T07:22:33.843Z,489.7
2023-02-15T07:23:36.351Z,490
2023-02-15T07:24:38.588Z,489.8
2023-02-15T07:25:40.576Z,489.7
2023-02-15T07:26:42.811Z,489.1
2023-02-15T07:27:45.314Z,489.6
2023-02-15T07:28:47.530Z,489.6
2023-02-15T07:29:49.851Z,489.2
2023-02-15T07:30:52.637Z,489.5
2023-02-15T07:31:55.621Z,489.7
2023-02-15T07:32:58.118Z,489.2
2023-02-15T07:34:00.815Z,489.6
2023-02-15T07:35:03.329Z,489.8
2023-02-15T07:36:06.315Z,489.6
2023-02-15T07:37:08.839Z,490
2023-02-15T07:38:10.816Z,490.4
2023-02-15T07:39:13.347Z,490.4
2023-02-15T07:40:15.568Z,490.6
2023-02-15T07:41:17.851Z,490.4
2023-02-15T07:42:19.814Z,490.8
2023-02-15T07:43:22.369Z,490.9
2023-02-15T07:44:24.878Z,491
2023-02-15T07:45:26.841Z,490.4
2023-02-15T07:46:29.658Z,490.7
2023-02-15T07:47:31.944Z,491.4
2023-02-15T07:48:34.454Z,491.1
2023-02-15T07:49:37.156Z,491
2023-02-15T07:50:39.659Z,491.3
2023-02-15T07:51:42.193Z,491.6
2023-02-15T07:52:44.764Z,491.4
2023-02-15T07:53:47.279Z,491.6
2023-02-15T07:54:49.797Z,491.5
2023-02-15T07:55:52.034Z,491.5
2023-02-15T07:56:54.256Z,491.9
2023-02-15T07:57:56.820Z,491.9
2023-02-15T07:58:59.059Z,492.1
2023-02-15T08:00:01.680Z,492.3
2023-02-15T08:01:04.271Z,492.3
2023-02-15T08:02:06.479Z,492.1
2023-02-15T08:03:09.051Z,492.2
2023-02-15T08:04:10.794Z,492
2023-02-15T08:05:13.152Z,491.9
2023-02-15T08:06:15.653Z,492.2
2023-02-15T08:07:18.224Z,492
2023-02-15T08:08:20.741Z,492.3
2023-02-15T08:09:23.258Z,492.2
2023-02-15T08:10:26.340Z,491.9
2023-02-15T08:11:28.614Z,492.1
2023-02-15T08:12:30.855Z,491.5
2023-02-15T08:13:33.367Z,491.9
2023-02-15T08:14:35.894Z,491.8
2023-02-15T08:15:38.119Z,491.9
2023-02-15T08:16:40.770Z,492
2023-02-15T08:17:43.347Z,491.7
2023-02-15T08:18:45.835Z,492.4
2023-02-15T08:19:48.359Z,492.4
2023-02-15T08:20:50.983Z,492.3
2023-02-15T08:21:53.264Z,492.2
2023-02-15T08:22:55.759Z,492.2
2023-02-15T08:23:57.720Z,492.7
2023-02-15T08:25:00.234Z,492.1
2023-02-15T08:26:04.608Z,492.2
2023-02-15T08:27:08.459Z,492.2
2023-02-15T08:28:10.959Z,492.1
2023-02-15T08:29:13.214Z,492.2
2023-02-15T08:30:15.870Z,492.1
2023-02-15T08:31:18.704Z,492
2023-02-15T08:32:21.410Z,492.1
2023-02-15T08:33:23.670Z,492.3
2023-02-15T08:34:25.913Z,492.3
2023-02-15T08:35:28.463Z,492.4
2023-02-15T08:36:31.113Z,492.6
2023-02-15T08:37:33.318Z,492.5
2023-02-15T08:38:35.874Z,492.5
2023-02-15T08:39:38.126Z,492.6
2023-02-15T08:40:40.641Z,492.5
2023-02-15T08:41:42.884Z,492.5
2023-02-15T08:42:45.455Z,492.2
2023-02-15T08:43:48.011Z,492.4
2023-02-15T08:44:52.064Z,492.7
2023-02-15T08:45:54.804Z,492.5
2023-02-15T08:46:56.561Z,492.3
2023-02-15T08:47:58.538Z,491.9
2023-02-15T08:49:01.061Z,492.2
2023-02-15T08:50:03.609Z,492.6
2023-02-15T08:51:06.151Z,492.5
2023-02-15T08:52:08.849Z,492.5
2023-02-15T08:53:11.391Z,492.7
2023-02-15T08:54:13.640Z,492.3
2023-02-15T08:55:16.138Z,492.4
2023-02-15T08:56:18.658Z,492.3
2023-02-15T08:57:20.597Z,492.5
2023-02-15T08:58:23.113Z,492.3
2023-02-15T08:59:25.390Z,492.3
2023-02-15T09:00:27.970Z,492.7
2023-02-15T09:01:30.760Z,492
2023-02-15T09:02:33.714Z,492.3
2023-02-15T09:03:35.988Z,492.5
2023-02-15T09:04:38.217Z,492.4
2023-02-15T09:05:40.474Z,492.6
2023-02-15T09:06:42.987Z,492.8
2023-02-15T09:07:45.798Z,492.6
2023-02-15T09:08:48.319Z,492.5
2023-02-15T09:09:50.557Z,492.7
2023-02-15T09:10:52.806Z,492.9
2023-02-15T09:13:00.014Z,492.7
2023-02-15T09:14:02.632Z,492.8
2023-02-15T09:15:05.228Z,492.7
2023-02-15T09:16:07.805Z,493.3
2023-02-15T09:17:10.374Z,492.9
2023-02-15T09:18:12.889Z,493.2
2023-02-15T09:19:15.480Z,493
2023-02-15T09:20:17.987Z,493.3
2023-02-15T09:21:20.229Z,493.3
2023-02-15T09:22:22.484Z,493.4
2023-02-15T09:24:30.264Z,493.6
2023-02-15T09:25:32.782Z,493.4
2023-02-15T09:26:35.327Z,493.5
2023-02-15T09:27:37.585Z,493.8
2023-02-15T09:28:40.122Z,493.9
2023-02-15T09:29:42.500Z,494
2023-02-15T09:30:45.376Z,493.8
2023-02-15T09:31:48.266Z,494.3
2023-02-15T09:32:50.574Z,494.1
2023-02-15T09:33:52.616Z,494
2023-02-15T09:34:55.139Z,493.8
2023-02-15T09:35:57.660Z,493.7
2023-02-15T09:36:59.920Z,493.7
2023-02-15T09:38:01.845Z,493.8
2023-02-15T09:39:04.491Z,494.1
2023-02-15T09:40:07.178Z,494
2023-02-15T09:41:09.459Z,493.7
2023-02-15T09:42:11.743Z,493.7
2023-02-15T09:43:14.310Z,493.5
2023-02-15T09:44:16.561Z,493.8
2023-02-15T09:45:20.549Z,494.1
2023-02-15T09:46:23.323Z,494.2
2023-02-15T09:47:25.976Z,493.9
2023-02-15T09:48:28.552Z,494.1
2023-02-15T09:49:31.074Z,493.7
2023-02-15T09:50:36.695Z,493.6
2023-02-15T09:51:39.364Z,493.6
2023-02-15T09:52:41.639Z,493.9
2023-02-15T09:53:44.034Z,493.6
2023-02-15T09:54:46.390Z,493.4
2023-02-15T09:55:48.742Z,493.3
2023-02-15T09:56:51.320Z,493.3
2023-02-15T09:57:53.847Z,493
2023-02-15T09:58:56.094Z,493.6
2023-02-15T09:59:58.323Z,493.5
2023-02-15T10:01:02.777Z,493.1
2023-02-15T10:02:04.938Z,493.3
2023-02-15T10:03:08.913Z,493.6
2023-02-15T10:04:11.793Z,493.3
2023-02-15T10:05:14.343Z,493.6
2023-02-15T10:06:16.636Z,493.5
2023-02-15T10:07:18.900Z,493.6
2023-02-15T10:08:21.416Z,493.7
2023-02-15T10:09:23.667Z,493.8
2023-02-15T10:10:25.925Z,493.8
2023-02-15T10:11:28.517Z,493.4
2023-02-15T10:12:31.033Z,494
2023-02-15T10:13:33.551Z,493.6
2023-02-15T10:14:36.063Z,493.8
2023-02-15T10:15:38.580Z,493.7
2023-02-15T10:16:41.197Z,493.8
2023-02-15T10:17:43.738Z,493.8
2023-02-15T10:18:46.293Z,494.4
2023-02-15T10:19:48.829Z,494.1
2023-02-15T10:20:51.396Z,494.5
2023-02-15T10:21:53.909Z,494.1
2023-02-15T10:22:56.144Z,494.4
2023-02-15T10:23:58.366Z,494.5
2023-02-15T10:25:00.635Z,494.3
2023-02-15T10:26:05.363Z,494.5
2023-02-15T10:27:08.037Z,494.2
2023-02-15T10:28:10.564Z,494.7
2023-02-15T10:29:12.798Z,494.6
2023-02-15T10:30:15.683Z,494.5
2023-02-15T10:31:18.659Z,494.3
2023-02-15T10:32:21.483Z,494.5
2023-02-15T10:33:23.486Z,495.1
2023-02-15T10:34:26.044Z,494.7
2023-02-15T10:35:28.570Z,495.2
2023-02-15T10:36:31.118Z,495.1
2023-02-15T10:37:33.361Z,494.8
2023-02-15T10:38:35.878Z,494.9
2023-02-15T10:39:38.452Z,495.1
2023-02-15T10:40:40.991Z,495
2023-02-15T10:41:43.248Z,495
2023-02-15T10:42:45.953Z,495.4
2023-02-15T10:43:48.466Z,495.6
2023-02-15T10:44:50.964Z,495.9
2023-02-15T10:45:53.741Z,495.6
2023-02-15T10:46:56.331Z,495.7
2023-02-15T10:47:58.552Z,495.7
2023-02-15T10:49:00.806Z,495.7
2023-02-15T10:50:03.057Z,496.3
2023-02-15T10:51:05.882Z,496.4
2023-02-15T10:52:08.398Z,496
2023-02-15T10:53:10.985Z,496.5
2023-02-15T10:54:13.475Z,496.6
2023-02-15T10:55:16.036Z,497
2023-02-15T10:56:18.288Z,497
2023-02-15T10:57:20.541Z,497.6
2023-02-15T10:58:23.251Z,497.2
2023-02-15T10:59:25.774Z,497.3
2023-02-15T11:00:28.172Z,497.5
2023-02-15T11:01:30.876Z,497.7
2023-02-15T11:02:33.145Z,497.4
2023-02-15T11:03:35.649Z,497.8
2023-02-15T11:04:38.087Z,498
2023-02-15T11:05:40.307Z,498
2023-02-15T11:06:42.804Z,498
2023-02-15T11:07:45.333Z,498.2
2023-02-15T11:08:47.767Z,498.3
2023-02-15T11:09:50.406Z,498.4
2023-02-15T11:10:52.946Z,498.8
2023-02-15T11:11:55.512Z,498.5
2023-02-15T11:12:57.473Z,498.8
2023-02-15T11:14:00.158Z,499.4
2023-02-15T11:15:02.371Z,499.5
2023-02-15T11:16:05.127Z,499.2
2023-02-15T11:17:07.391Z,499.2
2023-02-15T11:18:09.627Z,499.5
2023-02-15T11:19:12.167Z,499.8
2023-02-15T11:20:14.403Z,499.2
2023-02-15T11:21:16.898Z,499.7
2023-02-15T11:22:20.170Z,500.1
2023-02-15T11:23:22.115Z,500
2023-02-15T11:24:24.619Z,500.1
2023-02-15T11:25:26.876Z,500.1
2023-02-15T11:26:29.388Z,500.6
2023-02-15T11:27:32.436Z,500.8
2023-02-15T11:28:35.026Z,501
2023-02-15T11:29:37.746Z,501
2023-02-15T11:30:40.099Z,501.5
2023-02-15T11:31:43.621Z,501.7
2023-02-15T11:32:45.975Z,501.5
2023-02-15T11:33:48.201Z,501.8
2023-02-15T11:34:50.699Z,501.3
2023-02-15T11:35:53.209Z,502
2023-02-15T11:36:55.732Z,502.1
2023-02-15T11:37:58.263Z,502
2023-02-15T11:39:00.529Z,502.2
2023-02-15T11:40:03.051Z,502.5
2023-02-15T11:41:06.757Z,502.5
2023-02-15T11:42:09.014Z,502.6
2023-02-15T11:43:10.956Z,503
2023-02-15T11:44:13.509Z,502.8
2023-02-15T11:45:16.159Z,503.4
2023-02-15T11:46:19.986Z,503.2
2023-02-15T11:47:21.752Z,503.6
2023-02-15T11:48:24.068Z,503.9
2023-02-15T11:49:26.591Z,504
2023-02-15T11:50:28.532Z,503.8
2023-02-15T11:51:31.073Z,504.4
2023-02-15T11:52:33.606Z,504.3
2023-02-15T11:53:36.105Z,504.2
2023-02-15T11:54:38.677Z,504.6
2023-02-15T11:55:41.185Z,504.6
2023-02-15T11:56:43.727Z,505
2023-02-15T11:57:46.247Z,504.7
2023-02-15T11:58:48.741Z,504.9
2023-02-15T11:59:51.289Z,504.9
2023-02-15T12:00:54.110Z,505.1
2023-02-15T12:01:56.353Z,505.2
2023-02-15T12:02:59.102Z,505.3
2023-02-15T12:04:01.774Z,505.2
2023-02-15T12:05:04.386Z,505.5
2023-02-15T12:06:06.652Z,505.3
2023-02-15T12:07:08.946Z,505.4
2023-02-15T12:08:11.478Z,505.7
2023-02-15T12:09:13.756Z,505.9
2023-02-15T12:10:16.025Z,506.2
2023-02-15T12:11:18.058Z,506
2023-02-15T12:12:20.285Z,506.5
2023-02-15T12:13:22.818Z,506.5
2023-02-15T12:14:24.763Z,506.6
2023-02-15T12:15:27.024Z,506.8
2023-02-15T12:16:29.811Z,507
2023-02-15T12:17:32.392Z,507.1
2023-02-15T12:18:34.619Z,506.8
2023-02-15T12:19:36.921Z,507.2
2023-02-15T12:20:39.401Z,507.2
2023-02-15T12:21:41.933Z,507.9
2023-02-15T12:22:44.439Z,507.8
2023-02-15T12:23:46.976Z,507.6
2023-02-15T12:24:48.924Z,507.7
2023-02-15T12:25:51.425Z,507.6
2023-02-15T12:26:53.921Z,508.4
2023-02-15T12:27:56.436Z,508
2023-02-15T12:28:58.970Z,508
2023-02-15T12:30:01.958Z,508.2
2023-02-15T12:31:06.923Z,508.2
2023-02-15T12:32:10.304Z,508.1
2023-02-15T12:33:12.908Z,508.7
2023-02-15T12:34:15.161Z,508.7
2023-02-15T12:35:17.769Z,509.2
2023-02-15T12:36:20.382Z,508.9
2023-02-15T12:37:22.686Z,509.4
2023-02-15T12:38:25.193Z,509
2023-02-15T12:39:27.695Z,509.3
2023-02-15T12:41:34.893Z,509.4
2023-02-15T12:42:37.120Z,509.7
2023-02-15T12:43:39.857Z,509.5
2023-02-15T12:44:42.462Z,509.5
2023-02-15T12:45:44.729Z,509.5
2023-02-15T12:46:49.646Z,509.6
2023-02-15T12:47:52.289Z,509.6
2023-02-15T12:48:54.805Z,509.5
2023-02-15T12:49:56.788Z,509.6
2023-02-15T12:50:59.084Z,509.5
2023-02-15T12:52:01.670Z,509.5
2023-02-15T12:53:04.177Z,509.4
2023-02-15T12:54:06.459Z,509.9
2023-02-15T12:55:09.003Z,510
2023-02-15T12:56:11.289Z,510.1
2023-02-15T12:57:13.862Z,510.1
2023-02-15T12:58:16.368Z,510.5
2023-02-15T13:00:23.901Z,511
2023-02-15T13:01:26.959Z,510.6
2023-02-15T13:02:29.115Z,510.8
2023-02-15T13:03:31.772Z,511.1
2023-02-15T13:04:34.016Z,510.9
2023-02-15T13:05:36.578Z,511.3
2023-02-15T13:06:39.120Z,511.2
2023-02-15T13:07:41.098Z,511.2
2023-02-15T13:08:43.600Z,511.3
2023-02-15T13:09:45.815Z,511.6
2023-02-15T13:10:48.032Z,511.4
2023-02-15T13:11:49.983Z,511.2
2023-02-15T13:12:52.483Z,511.6
2023-02-15T13:13:55.002Z,512
2023-02-15T13:14:57.501Z,512.1
2023-02-15T13:16:00.361Z,512.1
2023-02-15T13:17:02.916Z,511.9
2023-02-15T13:18:05.481Z,511.8
2023-02-15T13:19:08.172Z,512
2023-02-15T13:20:10.708Z,512
2023-02-15T13:21:12.640Z,512.3
2023-02-15T13:22:15.134Z,512.2
2023-02-15T13:23:17.641Z,512.5
2023-02-15T13:24:20.422Z,512.4
2023-02-15T13:25:22.994Z,512.3
2023-02-15T13:26:25.537Z,512.5
2023-02-15T13:27:28.055Z,512.6
2023-02-15T13:28:30.562Z,512.6
2023-02-15T13:29:36.214Z,512.8
2023-02-15T13:30:37.708Z,513.1
2023-02-15T13:31:41.049Z,512.9
2023-02-15T13:32:43.625Z,513.2
2023-02-15T13:33:46.226Z,513.1
2023-02-15T13:34:48.620Z,513.2
2023-02-15T13:35:50.841Z,513.4
2023-02-15T13:36:53.362Z,513.5
2023-02-15T13:37:55.365Z,513.7
2023-02-15T13:38:57.370Z,513.7
2023-02-15T13:39:59.897Z,513.6